Elmore, Alabama
Current Conditions -  °F | °C
As of 8:58 AM on Thursday 30 Oct 2014 (Local Time) from KMXF Reporting Station
Clear Clear  
Wind Chill: 54°   Ceiling: Unl
Heat Index: 54°   Visibility: 10mi
Dew Point: 46°   Wind: 3mph
Humidity: 77%   Direction: 30°NNE
Pressure: 30.12"   Gusts: NA
Location:  32.54°N, 86.31°W
Report Text: KMXF 301358Z 03003KT 10SM CLR 12/08 A3012 RMK AO2A SLP202 $
Loading
Personal Weather Stations






























Interactive Weather Map
Tropical Storm Tracking
New forecast layout! Learn more

10-Day Weather Forecast

Advertisements
Track Severe Weather on mobile